Time;durP1;ratioP1;P1;durP2;ratioP2;P2;SDS_P1;SDS_P2;PMS_P1;PMS_P2;Temp;Humidity;BMP_temperature;BMP_pressure;BME280_temperature;BME280_humidity;BME280_pressure;Samples;Min_cycle;Max_cycle;Signal;HPM_P1;HPM_P2
2022/01/12 00:01:28;;;;;;;18.02;10.23;;;;;;;-146.48;100.00;38879.66;5303020;28;20474;-67
2022/01/12 00:04:00;;;;;;;19.52;10.35;;;;;;;-146.48;100.00;38935.47;5301291;28;20028;-68
2022/01/12 00:06:31;;;;;;;18.15;9.85;;;;;;;-146.48;100.00;38961.38;5302748;28;20062;-67
2022/01/12 00:09:07;;;;;;;14.57;8.95;;;;;;;-146.48;100.00;38941.44;5302455;28;20036;-68
2022/01/12 00:11:38;;;;;;;16.65;9.48;;;;;;;-146.48;100.00;38933.47;5301459;28;20052;-69
2022/01/12 00:14:09;;;;;;;17.15;10.20;;;;;;;-146.48;100.00;38897.59;5302819;28;20063;-68
2022/01/12 00:16:46;;;;;;;22.35;10.50;;;;;;;-146.48;100.00;38907.56;5300983;28;20032;-68
2022/01/12 00:19:17;;;;;;;18.20;9.77;;;;;;;-146.48;100.00;38849.78;5302661;28;20032;-68
2022/01/12 00:21:48;;;;;;;19.23;9.93;;;;;;;-146.48;100.00;38795.97;5302142;28;20123;-68
2022/01/12 00:24:20;;;;;;;17.80;9.73;;;;;;;-146.48;100.00;38817.88;5301915;28;20031;-68
2022/01/12 00:35:25;;;;;;;19.02;10.35;;;;;;;-146.48;100.00;38552.84;5302842;28;20032;-68
2022/01/12 00:37:56;;;;;;;19.45;10.40;;;;;;;-146.48;100.00;38522.94;5301070;28;20032;-68
2022/01/12 00:40:27;;;;;;;16.55;10.38;;;;;;;-146.48;100.00;38467.16;5302685;28;20100;-68
2022/01/12 00:42:59;;;;;;;16.40;10.68;;;;;;;-146.48;100.00;38423.31;5301765;28;20115;-68
2022/01/12 00:45:32;;;;;;;17.58;10.40;;;;;;;-146.48;100.00;38441.25;5301665;28;20433;-68
2022/01/12 00:48:05;;;;;;;19.45;10.77;;;;;;;-146.48;100.00;38512.97;5301350;28;20044;-68
2022/01/12 00:50:37;;;;;;;18.83;11.27;;;;;;;-146.48;100.00;38584.72;5303332;28;20477;-68
2022/01/12 00:53:09;;;;;;;21.25;11.77;;;;;;;-146.48;100.00;38584.72;5305636;28;20032;-68
2022/01/12 00:55:41;;;;;;;21.02;11.07;;;;;;;-146.48;100.00;38634.53;5305763;28;20120;-68
2022/01/12 00:58:12;;;;;;;20.67;12.00;;;;;;;-146.48;100.00;38865.72;5306450;28;20418;-68
2022/01/12 01:00:43;;;;;;;19.88;11.57;;;;;;;-146.48;100.00;39011.19;5304838;28;20028;-68
2022/01/12 01:03:15;;;;;;;19.98;11.82;;;;;;;-146.48;100.00;39112.84;5306362;28;20059;-68
2022/01/12 01:05:47;;;;;;;19.77;11.95;;;;;;;-146.48;100.00;39306.19;5304727;28;20027;-68
2022/01/12 01:08:18;;;;;;;25.30;13.40;;;;;;;-146.48;100.00;39425.78;5306153;28;20051;-68
2022/01/12 01:10:51;;;;;;;20.73;12.80;;;;;;;-146.48;100.00;39579.25;5305564;28;20487;-68
2022/01/12 01:13:33;;;;;;;21.25;13.02;;;;;;;-146.48;100.00;39754.66;5305597;28;20454;-68
2022/01/12 01:27:15;;;;;;;27.73;14.65;;;;;;;-146.48;100.00;40265.00;5305008;28;20471;-68
2022/01/12 01:29:47;;;;;;;23.67;14.35;;;;;;;-146.48;100.00;40422.50;5305305;28;20020;-68
2022/01/12 01:32:19;;;;;;;23.95;13.50;;;;;;;-146.48;100.00;40667.72;5305884;28;20024;-68
2022/01/12 01:34:50;;;;;;;22.50;14.10;;;;;;;-146.48;100.00;40821.25;5304332;28;20020;-68
2022/01/12 01:37:22;;;;;;;26.60;14.45;;;;;;;-146.48;100.00;41038.59;5305642;28;20495;-68
2022/01/12 01:39:53;;;;;;;24.23;14.02;;;;;;;-146.48;100.00;41194.13;5305000;28;20024;-68
2022/01/12 01:42:38;;;;;;;28.00;16.02;;;;;;;-146.48;100.00;41341.72;5304506;28;20024;-68
2022/01/12 01:53:39;;;;;;;28.23;15.23;;;;;;;-146.48;100.00;41798.41;5304943;28;20028;-68
2022/01/12 01:56:11;;;;;;;24.95;14.68;;;;;;;-146.48;100.00;41906.09;5304952;28;20024;-67
2022/01/12 01:58:42;;;;;;;23.73;14.90;;;;;;;-146.48;100.00;41949.97;5304607;28;20125;-68
2022/01/12 02:01:15;;;;;;;24.73;15.43;;;;;;;-146.48;100.00;42111.53;5304797;28;20040;-68
2022/01/12 02:03:46;;;;;;;29.00;16.15;;;;;;;-146.48;100.00;42285.06;5302874;28;20031;-67
2022/01/12 02:06:18;;;;;;;26.70;16.35;;;;;;;-146.48;100.00;42374.81;5305165;28;20467;-68
2022/01/12 02:08:49;;;;;;;28.08;16.05;;;;;;;-146.48;100.00;42500.50;5304541;28;20028;-68
2022/01/12 02:11:25;;;;;;;26.67;16.47;;;;;;;-146.48;100.00;42534.41;5304078;28;20050;-68
2022/01/12 02:13:57;;;;;;;27.63;15.20;;;;;;;-146.48;100.00;42650.09;5304473;28;20259;-66
2022/01/12 02:16:36;;;;;;;31.98;17.08;;;;;;;-146.48;100.00;42757.81;5303998;28;20040;-68
2022/01/12 02:19:17;;;;;;;31.42;16.17;;;;;;;-146.48;100.00;42819.66;5304707;28;20024;-69
2022/01/12 02:36:14;;;;;;;27.92;15.18;;;;;;;-146.48;100.00;43091.00;5303810;28;20036;-68
2022/01/12 02:41:37;;;;;;;28.63;15.30;;;;;;;-146.48;100.00;43085.00;5304664;28;20107;-67
2022/01/12 02:55:16;;;;;;;29.08;16.05;;;;;;;-146.48;100.00;43274.53;5304047;28;20375;-67
2022/01/12 02:57:47;;;;;;;30.87;18.03;;;;;;;-146.48;100.00;43276.53;5303586;28;20024;-67
2022/01/12 03:00:20;;;;;;;29.15;17.45;;;;;;;-146.48;100.00;43342.38;5303295;28;20024;-67
2022/01/12 03:02:53;;;;;;;29.85;17.33;;;;;;;-146.48;100.00;43354.34;5303467;28;20044;-67
2022/01/12 03:07:58;;;;;;;32.33;17.92;;;;;;;-146.48;100.00;43408.22;5303029;28;20043;-68
2022/01/12 03:10:30;;;;;;;33.40;18.58;;;;;;;-146.48;100.00;43424.19;5304013;28;20043;-67
2022/01/12 03:13:01;;;;;;;28.77;17.63;;;;;;;-146.48;100.00;43525.94;5301981;28;20012;-67
2022/01/12 03:15:39;;;;;;;30.65;17.77;;;;;;;-146.48;100.00;43551.88;5303876;28;20038;-67
2022/01/12 03:18:11;;;;;;;34.50;18.23;;;;;;;-146.48;100.00;43599.75;5303639;28;20020;-67
2022/01/12 03:20:45;;;;;;;35.38;18.67;;;;;;;-146.48;100.00;43679.56;5302429;28;20282;-68
2022/01/12 03:23:17;;;;;;;29.75;17.67;;;;;;;-146.48;100.00;43667.59;5303520;28;20024;-67
2022/01/12 03:25:49;;;;;;;31.08;17.33;;;;;;;-146.48;100.00;43693.53;5302985;28;20505;-67
2022/01/12 03:28:20;;;;;;;29.25;17.70;;;;;;;-146.48;100.00;43781.34;5302682;28;20030;-67
2022/01/12 03:31:03;;;;;;;30.63;18.15;;;;;;;-146.48;100.00;43757.41;5302782;28;20098;-68
2022/01/12 03:36:40;;;;;;;34.67;18.55;;;;;;;-146.48;100.00;43783.34;5303518;28;20047;-68
2022/01/12 03:39:14;;;;;;;31.77;17.80;;;;;;;-146.48;100.00;43821.25;5303226;28;20024;-67
2022/01/12 03:41:45;;;;;;;40.53;20.58;;;;;;;-146.48;100.00;43833.22;5302196;28;20037;-68
2022/01/12 03:44:18;;;;;;;36.08;20.20;;;;;;;-146.48;100.00;43865.16;5303317;28;20024;-68
2022/01/12 03:46:51;;;;;;;36.75;19.30;;;;;;;-146.48;100.00;43935.00;5302611;28;20031;-68
2022/01/12 03:49:22;;;;;;;33.63;18.55;;;;;;;-146.48;100.00;43923.03;5302538;28;20037;-68
2022/01/12 03:51:54;;;;;;;37.55;19.20;;;;;;;-146.48;100.00;43893.09;5302453;28;20493;-68
2022/01/12 03:54:25;;;;;;;32.70;19.35;;;;;;;-146.48;100.00;43937.00;5302917;28;20374;-68
2022/01/12 03:56:59;;;;;;;38.17;19.80;;;;;;;-146.48;100.00;44024.78;5301493;28;20455;-68
2022/01/12 03:59:30;;;;;;;37.30;20.60;;;;;;;-146.48;100.00;44050.72;5302979;28;20020;-68
2022/01/12 04:02:02;;;;;;;36.08;19.80;;;;;;;-146.48;100.00;44058.72;5301654;28;20050;-68
2022/01/12 04:04:42;;;;;;;34.92;18.60;;;;;;;-146.48;100.00;44112.59;5303041;28;20482;-68
2022/01/12 04:10:20;;;;;;;39.55;20.20;;;;;;;-146.48;100.00;44378.03;5237235;28;20053;-68
2022/01/12 04:12:51;;;;;;;42.90;21.55;;;;;;;-146.48;100.00;44352.06;5291477;28;20040;-69
2022/01/12 04:15:22;;;;;;;40.03;21.00;;;;;;;-146.48;100.00;44354.06;5302928;28;20103;-67
2022/01/12 04:17:53;;;;;;;37.45;20.52;;;;;;;-146.48;100.00;44370.03;5301230;28;20058;-67
2022/01/12 04:20:25;;;;;;;41.67;20.50;;;;;;;-146.48;100.00;44441.88;5302611;28;20408;-66
2022/01/12 04:25:53;;;;;;;35.67;21.23;;;;;;;-146.48;100.00;44497.75;5303574;28;20032;-66
2022/01/12 04:28:28;;;;;;;35.95;20.77;;;;;;;-146.48;100.00;44479.81;5307067;28;20020;-67
2022/01/12 04:30:59;;;;;;;37.35;21.10;;;;;;;-146.48;100.00;44553.66;5305434;28;20106;-67
2022/01/12 04:33:31;;;;;;;46.08;22.48;;;;;;;-146.48;100.00;44533.69;5307022;28;20475;-67
2022/01/12 04:36:05;;;;;;;41.92;22.33;;;;;;;-146.48;100.00;44591.56;5306488;28;20390;-67
2022/01/12 04:38:38;;;;;;;45.20;23.77;;;;;;;-146.48;100.00;44595.56;5306068;28;20470;-67
2022/01/12 04:41:10;;;;;;;43.22;23.52;;;;;;;-146.48;100.00;44639.47;5306783;28;20031;-68
2022/01/12 04:43:43;;;;;;;37.83;23.17;;;;;;;-146.48;100.00;44663.41;5306055;28;20016;-67
2022/01/12 04:48:53;;;;;;;44.58;23.88;;;;;;;-146.48;100.00;44831.06;5306039;28;20040;-67
2022/01/12 04:51:25;;;;;;;43.53;24.33;;;;;;;-146.48;100.00;44787.16;5305933;28;20024;-67
2022/01/12 04:53:57;;;;;;;40.78;22.35;;;;;;;-146.48;100.00;44819.09;5305899;28;20350;-67
2022/01/12 04:56:29;;;;;;;43.38;23.25;;;;;;;-146.48;100.00;44799.13;5306529;28;20032;-67
2022/01/12 04:59:02;;;;;;;39.65;22.33;;;;;;;-146.48;100.00;44813.09;5305315;28;20024;-67
2022/01/12 05:01:36;;;;;;;42.88;23.35;;;;;;;-146.48;100.00;44853.03;5306441;28;20094;-67
2022/01/12 05:10:02;;;;;;;45.75;24.83;;;;;;;-146.48;100.00;44924.88;5305481;28;20120;-68
2022/01/12 05:12:50;;;;;;;43.50;24.23;;;;;;;-146.48;100.00;44892.94;5305247;28;20031;-67
2022/01/12 05:15:32;;;;;;;42.78;23.55;;;;;;;-146.48;100.00;44944.84;5306384;28;20436;-68
2022/01/12 05:18:03;;;;;;;48.25;25.48;;;;;;;-146.48;100.00;45072.59;5305752;28;20459;-68
2022/01/12 05:20:34;;;;;;;45.45;25.35;;;;;;;-146.48;100.00;45028.69;5305262;28;20024;-68
2022/01/12 05:23:06;;;;;;;48.70;26.05;;;;;;;-146.48;100.00;45116.50;5305396;28;20100;-68
2022/01/12 05:25:37;;;;;;;44.88;25.75;;;;;;;-146.48;100.00;45078.56;5305211;28;20120;-68
2022/01/12 05:28:08;;;;;;;47.08;25.40;;;;;;;-146.48;100.00;45054.63;5305246;28;20379;-68
2022/01/12 05:30:40;;;;;;;45.65;25.30;;;;;;;-146.48;100.00;45132.47;5305374;28;20077;-68
2022/01/12 05:33:12;;;;;;;45.55;25.08;;;;;;;-146.48;100.00;45164.41;5304995;28;20028;-68
2022/01/12 05:35:44;;;;;;;48.90;26.63;;;;;;;-146.48;100.00;45168.41;5305128;28;20463;-68
2022/01/12 05:38:15;;;;;;;46.70;26.38;;;;;;;-146.48;100.00;45172.41;5305610;28;20495;-68
2022/01/12 05:40:52;;;;;;;47.40;26.38;;;;;;;-146.48;100.00;45240.25;5304119;28;20067;-68
2022/01/12 05:43:26;;;;;;;44.75;26.50;;;;;;;-146.48;100.00;45222.28;5305492;28;20085;-68
2022/01/12 05:46:08;;;;;;;46.53;26.33;;;;;;;-146.48;100.00;45232.28;5305017;28;20051;-68
2022/01/12 05:51:32;;;;;;;47.08;26.88;;;;;;;-146.48;100.00;45324.09;5305761;28;20033;-68
2022/01/12 05:54:04;;;;;;;48.45;28.15;;;;;;;-146.48;100.00;45294.16;5304746;28;20020;-68
2022/01/12 05:56:35;;;;;;;46.45;25.48;;;;;;;-146.48;100.00;45308.13;5304347;28;20032;-68
2022/01/12 05:59:06;;;;;;;49.83;27.55;;;;;;;-146.48;100.00;45276.19;5304612;28;20024;-68
2022/01/12 06:01:38;;;;;;;47.63;27.02;;;;;;;-146.48;100.00;45342.06;5303861;28;20463;-68
2022/01/12 06:04:09;;;;;;;45.05;26.15;;;;;;;-146.48;100.00;45370.00;5304936;28;20032;-68
2022/01/12 06:06:40;;;;;;;49.10;26.73;;;;;;;-146.48;100.00;45403.94;5304452;28;20461;-68
2022/01/12 06:09:12;;;;;;;50.45;27.35;;;;;;;-146.48;100.00;45453.84;5304205;28;20069;-67
2022/01/12 06:11:43;;;;;;;53.92;27.67;;;;;;;-146.48;100.00;45459.84;5304491;28;20032;-68
2022/01/12 06:14:19;;;;;;;56.40;28.15;;;;;;;-146.48;100.00;45437.88;5304563;28;20096;-68
2022/01/12 06:16:50;;;;;;;49.83;27.73;;;;;;;-146.48;100.00;45449.88;5303513;28;20035;-68
2022/01/12 06:19:21;;;;;;;52.72;29.10;;;;;;;-146.48;100.00;45483.81;5304805;28;20024;-68
2022/01/12 06:21:53;;;;;;;55.28;29.35;;;;;;;-146.48;100.00;45501.75;5304467;28;20428;-68
2022/01/12 06:24:24;;;;;;;55.42;29.75;;;;;;;-146.48;100.00;45517.75;5303888;28;20028;-68
2022/01/12 06:26:57;;;;;;;50.95;27.80;;;;;;;-146.48;100.00;45599.59;5304165;28;21102;-68
2022/01/12 06:30:01;;;;;;;49.30;27.17;;;;;;;-146.48;100.00;45659.47;5303936;28;20028;-68
2022/01/12 06:32:32;;;;;;;54.85;29.13;;;;;;;-146.48;100.00;45739.34;5304500;28;20032;-68
2022/01/12 06:35:04;;;;;;;50.97;29.73;;;;;;;-146.48;100.00;45689.41;5303888;28;20021;-67
2022/01/12 06:37:35;;;;;;;53.92;29.33;;;;;;;-146.48;100.00;45631.53;5303586;28;20463;-68
2022/01/12 06:40:07;;;;;;;49.38;27.58;;;;;;;-146.48;100.00;45721.38;5303681;28;20028;-67
2022/01/12 06:42:38;;;;;;;52.50;29.27;;;;;;;-146.48;100.00;45745.31;5303472;28;20027;-68
2022/01/12 06:45:10;;;;;;;56.20;30.70;;;;;;;-146.48;100.00;45741.31;5303627;28;20024;-68
2022/01/12 06:47:41;;;;;;;57.15;29.77;;;;;;;-146.48;100.00;45721.38;5302967;28;20017;-68
2022/01/12 06:50:13;;;;;;;53.80;29.38;;;;;;;-146.48;100.00;45719.38;5304090;28;20085;-68
2022/01/12 06:52:44;;;;;;;52.90;29.70;;;;;;;-146.48;100.00;45705.41;5302593;28;20012;-68
2022/01/12 06:55:15;;;;;;;53.50;29.17;;;;;;;-146.48;100.00;45745.31;5304260;28;20054;-67
2022/01/12 06:57:46;;;;;;;52.88;28.77;;;;;;;-146.48;100.00;45733.34;5302626;28;20042;-68
2022/01/12 07:00:18;;;;;;;54.90;31.08;;;;;;;-146.48;100.00;45671.44;5304059;28;20027;-68
2022/01/12 07:02:49;;;;;;;49.65;28.50;;;;;;;-146.48;100.00;45731.34;5303293;28;20054;-68
2022/01/12 07:05:20;;;;;;;52.83;28.38;;;;;;;-146.48;100.00;45789.25;5302875;28;20054;-68
2022/01/12 07:07:51;;;;;;;52.90;29.25;;;;;;;-146.48;100.00;45861.13;5302989;28;20032;-68
2022/01/12 07:10:24;;;;;;;51.55;29.85;;;;;;;-146.48;100.00;45809.22;5303663;28;20528;-68
2022/01/12 07:12:55;;;;;;;52.55;28.77;;;;;;;-146.48;100.00;45835.16;5302227;28;20099;-68
2022/01/12 07:15:26;;;;;;;55.53;29.95;;;;;;;-146.48;100.00;45845.16;5303616;28;20107;-68
2022/01/12 07:18:02;;;;;;;56.63;30.35;;;;;;;-146.48;100.00;45903.03;5302810;28;20054;-67
2022/01/12 07:20:34;;;;;;;56.33;30.45;;;;;;;-146.48;100.00;45839.16;5302976;28;20038;-68
2022/01/12 07:23:05;;;;;;;50.50;29.02;;;;;;;-146.48;100.00;45847.13;5302987;28;20032;-68
2022/01/12 07:25:37;;;;;;;50.45;30.45;;;;;;;-146.48;100.00;45829.16;5302474;28;20048;-68
2022/01/12 07:28:08;;;;;;;55.17;30.95;;;;;;;-146.48;100.00;45819.19;5303395;28;20028;-68
2022/01/12 07:30:39;;;;;;;51.85;30.33;;;;;;;-146.48;100.00;45913.03;5302765;28;20508;-68
2022/01/12 07:33:12;;;;;;;57.03;30.15;;;;;;;-146.48;100.00;45915.03;5302814;28;20438;-69
2022/01/12 07:35:43;;;;;;;58.15;31.42;;;;;;;-146.48;100.00;45992.88;5302896;28;20245;-68
2022/01/12 07:38:15;;;;;;;51.67;30.13;;;;;;;-146.48;100.00;46048.78;5303418;28;20115;-68
2022/01/12 07:40:46;;;;;;;52.88;30.38;;;;;;;-146.48;100.00;46042.78;5301704;28;20453;-68
2022/01/12 07:43:18;;;;;;;55.63;30.73;;;;;;;-146.48;100.00;46080.72;5303219;28;20478;-68
2022/01/12 07:45:50;;;;;;;54.60;29.58;;;;;;;-146.48;100.00;46170.56;5302669;28;20378;-68
2022/01/12 07:48:21;;;;;;;54.80;30.48;;;;;;;-146.48;100.00;46122.66;5301966;28;20140;-67
2022/01/12 07:50:52;;;;;;;57.03;31.20;;;;;;;-146.48;100.00;46178.56;5302374;28;20031;-67
2022/01/12 07:53:23;;;;;;;57.63;31.50;;;;;;;-146.48;100.00;46178.56;5303055;28;20028;-68
2022/01/12 07:55:55;;;;;;;58.28;30.30;;;;;;;-146.48;100.00;46242.47;5301498;28;20466;-68
2022/01/12 07:58:26;;;;;;;55.90;30.67;;;;;;;-146.48;100.00;46182.56;5302939;28;20032;-68
2022/01/12 08:00:57;;;;;;;59.65;31.88;;;;;;;-146.48;100.00;46218.50;5301548;28;20024;-68
2022/01/12 08:03:29;;;;;;;62.55;32.40;;;;;;;-146.48;100.00;46208.50;5302807;28;20024;-68
2022/01/12 08:06:01;;;;;;;57.90;32.28;;;;;;;-146.48;100.00;46238.47;5302278;28;20024;-67
2022/01/12 08:08:33;;;;;;;59.78;31.63;;;;;;;-146.48;100.00;46218.50;5302361;28;20382;-67
2022/01/12 08:11:04;;;;;;;58.80;31.88;;;;;;;-146.48;100.00;46292.38;5302269;28;20020;-68
2022/01/12 08:13:36;;;;;;;58.53;32.22;;;;;;;-146.48;100.00;46418.16;5302693;28;20027;-67
2022/01/12 08:16:07;;;;;;;60.28;32.60;;;;;;;-146.48;100.00;46460.09;5301737;28;20050;-67
2022/01/12 08:18:39;;;;;;;60.92;31.45;;;;;;;-146.48;100.00;46440.13;5302351;28;20027;-68
2022/01/12 08:21:10;;;;;;;69.35;33.33;;;;;;;-146.48;100.00;46388.22;5302962;28;20024;-67
2022/01/12 08:23:41;;;;;;;66.80;33.95;;;;;;;-146.48;100.00;46428.16;5301168;28;20101;-67
2022/01/12 08:26:13;;;;;;;76.63;35.47;;;;;;;-146.48;100.00;46490.06;5302733;28;20047;-67
2022/01/12 08:28:44;;;;;;;77.47;34.45;;;;;;;-146.48;100.00;46494.03;5301883;28;20035;-67
2022/01/12 08:31:17;;;;;;;82.30;35.13;;;;;;;-146.48;100.00;46577.91;5301861;28;20020;-68
2022/01/12 08:33:48;;;;;;;90.63;35.92;;;;;;;-146.48;100.00;46563.94;5302169;28;20024;-68
2022/01/12 08:36:20;;;;;;;109.05;37.22;;;;;;;-146.48;100.00;46559.94;5301893;28;20089;-68
2022/01/12 08:38:51;;;;;;;95.60;37.78;;;;;;;-146.48;100.00;46591.88;5302124;28;20047;-68
2022/01/12 08:41:23;;;;;;;120.05;37.97;;;;;;;-146.48;100.00;46641.81;5302900;28;20031;-68
2022/01/12 08:43:55;;;;;;;116.43;39.60;;;;;;;-146.48;100.00;46777.59;5300717;28;20020;-68
2022/01/12 08:46:26;;;;;;;118.97;38.00;;;;;;;-146.48;100.00;46755.63;5302073;28;20360;-68
2022/01/12 08:48:58;;;;;;;112.05;39.25;;;;;;;-146.48;100.00;46893.41;5301888;28;20052;-68
2022/01/12 08:51:29;;;;;;;120.38;39.17;;;;;;;-146.48;100.00;46987.28;5301694;28;20048;-68
2022/01/12 08:54:01;;;;;;;118.93;37.20;;;;;;;-146.48;100.00;46969.31;5302016;28;20032;-68
2022/01/12 08:56:32;;;;;;;135.32;38.65;;;;;;;-146.48;100.00;47041.19;5302621;28;20020;-68
2022/01/12 08:59:04;;;;;;;95.55;36.47;;;;;;;-146.48;100.00;47017.25;5301005;28;20099;-69
2022/01/12 09:01:35;;;;;;;108.15;37.22;;;;;;;-146.48;100.00;47055.19;5302337;28;20078;-68
2022/01/12 09:04:06;;;;;;;111.43;37.90;;;;;;;-146.48;100.00;47159.03;5300939;28;20032;-68
2022/01/12 09:06:38;;;;;;;115.80;38.38;;;;;;;-146.48;100.00;47177.00;5301973;28;20023;-68
2022/01/12 09:09:09;;;;;;;95.57;36.05;;;;;;;-146.48;100.00;47272.88;5302531;28;20052;-68
2022/01/12 09:11:40;;;;;;;104.60;37.50;;;;;;;-146.48;100.00;47414.66;5301910;28;20013;-68
2022/01/12 09:14:11;;;;;;;93.97;35.72;;;;;;;-146.48;100.00;47534.50;5306197;28;20467;-68
2022/01/12 09:16:43;;;;;;;83.93;35.45;;;;;;;-146.48;100.00;47754.22;5305479;28;20016;-68
2022/01/12 09:19:14;;;;;;;88.78;37.08;;;;;;;-146.48;100.00;47624.38;5305547;28;20020;-68
2022/01/12 09:21:45;;;;;;;109.47;36.28;;;;;;;-146.48;100.00;47494.56;5305472;28;20132;-68
2022/01/12 09:24:17;;;;;;;120.80;36.45;;;;;;;-146.48;100.00;47478.59;5305910;28;20020;-70
2022/01/12 09:26:49;;;;;;;96.90;35.72;;;;;;;-146.48;100.00;47512.53;5304512;28;20025;-69
2022/01/12 09:29:21;;;;;;;101.25;36.08;;;;;;;-146.48;100.00;47462.59;5306143;28;20475;-69
2022/01/12 09:31:52;;;;;;;136.95;37.03;;;;;;;-146.48;100.00;47414.66;5305317;28;20153;-68
2022/01/12 09:34:23;;;;;;;112.90;37.10;;;;;;;-146.48;100.00;47372.72;5305111;28;20039;-69
2022/01/12 09:36:55;;;;;;;155.40;39.25;;;;;;;-146.48;100.00;47302.81;5305075;28;20077;-69
2022/01/12 09:39:26;;;;;;;118.03;36.00;;;;;;;-146.48;100.00;47386.72;5304817;28;20096;-69
2022/01/12 09:41:58;;;;;;;117.00;34.70;;;;;;;-146.48;100.00;47328.78;5305024;28;20063;-68
2022/01/12 09:44:34;;;;;;;123.18;32.33;;;;;;;-146.48;100.00;47340.78;5305456;28;20417;-68
2022/01/12 09:47:06;;;;;;;141.88;36.97;;;;;;;-146.48;100.00;47328.78;5302463;28;20294;-68
2022/01/12 09:49:37;;;;;;;102.15;32.35;;;;;;;-146.48;100.00;47204.97;5303267;28;20043;-68
2022/01/12 09:52:09;;;;;;;129.43;33.40;;;;;;;-146.48;100.00;47372.72;5304158;28;20039;-68
2022/01/12 09:54:40;;;;;;;103.72;30.83;;;;;;;-146.48;100.00;47302.81;5302918;28;20111;-68
2022/01/12 09:57:12;;;;;;;91.75;27.80;;;;;;;-146.48;100.00;47332.78;5304056;28;20028;-68
2022/01/12 09:59:44;;;;;;;81.82;26.95;;;;;;;-146.48;100.00;47412.69;5302912;28;20028;-69
2022/01/12 10:02:18;;;;;;;96.03;25.65;;;;;;;-146.48;100.00;47268.88;5303126;28;20535;-68
2022/01/12 10:05:04;;;;;;;89.15;26.25;;;;;;;-146.48;100.00;47338.78;5303473;28;20034;-69
2022/01/12 10:07:36;;;;;;;77.20;24.48;;;;;;;-146.48;100.00;47238.91;5291568;28;20065;-69
2022/01/12 10:10:14;;;;;;;70.65;24.05;;;;;;;-146.48;100.00;47278.84;5284526;28;20347;-68
2022/01/12 10:12:53;;;;;;;82.38;25.08;;;;;;;-146.48;100.00;47224.94;5281122;28;20367;-69
2022/01/12 10:15:28;;;;;;;116.10;25.63;;;;;;;-146.48;100.00;47119.09;5281152;28;20471;-69
2022/01/12 10:18:02;;;;;;;111.78;25.70;;;;;;;-146.48;100.00;47234.91;5281352;28;20024;-69
2022/01/12 10:20:44;;;;;;;86.43;26.65;;;;;;;-146.48;100.00;47308.81;5281456;28;20032;-69
2022/01/12 10:23:16;;;;;;;117.72;26.40;;;;;;;-146.48;100.00;47310.81;5280460;28;20020;-69
2022/01/12 10:25:48;;;;;;;130.38;25.38;;;;;;;-146.48;100.00;47378.72;5281813;28;20091;-69
2022/01/12 10:28:22;;;;;;;96.82;25.63;;;;;;;-146.48;100.00;47320.81;5282252;28;20472;-69
2022/01/12 10:30:56;;;;;;;114.68;25.05;;;;;;;-146.48;100.00;47250.91;5280855;28;20108;-69
2022/01/12 10:33:31;;;;;;;114.20;26.33;;;;;;;-146.48;100.00;47278.84;5281620;28;20021;-69
2022/01/12 10:36:07;;;;;;;114.50;25.23;;;;;;;-146.48;100.00;47228.94;5280907;28;20016;-68
2022/01/12 10:38:39;;;;;;;72.65;24.10;;;;;;;-146.48;100.00;47236.91;5281779;28;20037;-68
2022/01/12 10:41:10;;;;;;;166.73;27.10;;;;;;;-146.48;100.00;47200.97;5282033;28;20035;-68
2022/01/12 10:43:44;;;;;;;129.10;24.92;;;;;;;-146.48;100.00;47238.91;5280505;28;20035;-68
2022/01/12 10:46:18;;;;;;;214.45;28.48;;;;;;;-146.48;100.00;47011.25;5281783;28;20067;-68
2022/01/12 10:48:52;;;;;;;112.13;23.73;;;;;;;-146.48;100.00;47171.00;5280740;28;20143;-69
2022/01/12 10:51:27;;;;;;;205.07;26.27;;;;;;;-146.48;100.00;47266.88;5281199;28;20377;-68
2022/01/12 10:54:04;;;;;;;84.93;23.25;;;;;;;-146.48;100.00;47264.88;5280972;28;20032;-69
2022/01/12 10:56:35;;;;;;;101.75;25.27;;;;;;;-146.48;100.00;47320.81;5280737;28;20111;-68
2022/01/12 10:59:16;;;;;;;201.52;27.55;;;;;;;-146.48;100.00;47306.81;5280703;28;20051;-69
2022/01/12 11:01:48;;;;;;;111.75;24.73;;;;;;;-146.48;100.00;47364.75;5281116;28;20020;-69
2022/01/12 11:04:20;;;;;;;190.73;29.75;;;;;;;-146.48;100.00;47232.94;5280929;28;20036;-68
2022/01/12 11:06:52;;;;;;;107.45;25.00;;;;;;;-146.48;100.00;47109.09;5280822;28;20024;-68
2022/01/12 11:09:24;;;;;;;78.28;23.88;;;;;;;-146.48;100.00;47109.09;5281674;28;20479;-68
2022/01/12 11:11:55;;;;;;;110.38;26.33;;;;;;;-146.48;100.00;47135.06;5279442;28;20031;-70
2022/01/12 11:14:26;;;;;;;119.03;26.67;;;;;;;-146.48;100.00;47051.19;5281504;28;20411;-68
2022/01/12 11:16:58;;;;;;;70.55;25.95;;;;;;;-146.48;100.00;47125.09;5280698;28;20032;-69
2022/01/12 11:19:31;;;;;;;81.82;27.40;;;;;;;-146.48;100.00;47089.13;5280352;28;20032;-69
2022/01/12 11:22:28;;;;;;;71.85;26.30;;;;;;;-146.48;100.00;47151.03;5280648;28;20107;-69
2022/01/12 11:24:59;;;;;;;77.95;26.17;;;;;;;-146.48;100.00;46937.34;5293518;28;20068;-69
2022/01/12 11:27:31;;;;;;;125.63;28.55;;;;;;;-146.48;100.00;46815.53;5280998;28;20063;-68
2022/01/12 11:30:03;;;;;;;63.80;26.48;;;;;;;-146.48;100.00;46875.44;5280660;28;20032;-68
2022/01/12 11:32:35;;;;;;;61.53;25.15;;;;;;;-146.48;100.00;46949.34;5280517;28;20088;-68
2022/01/12 11:35:06;;;;;;;60.53;26.58;;;;;;;-146.48;100.00;46901.41;5280099;28;20414;-68
2022/01/12 11:37:46;;;;;;;59.42;26.33;;;;;;;-146.48;100.00;46857.47;5279861;28;20468;-69
2022/01/12 11:40:17;;;;;;;68.28;25.23;;;;;;;-146.48;100.00;46943.34;5280115;28;20058;-68
2022/01/12 11:42:49;;;;;;;69.07;26.52;;;;;;;-146.48;100.00;46959.31;5280393;28;20054;-69
2022/01/12 11:45:20;;;;;;;55.63;24.13;;;;;;;-146.48;100.00;46897.41;5280918;28;20085;-69
2022/01/12 11:47:51;;;;;;;51.20;24.20;;;;;;;-146.48;100.00;46855.47;5279430;28;20090;-68
2022/01/12 11:50:23;;;;;;;52.28;22.38;;;;;;;-146.48;100.00;46911.41;5280465;28;20037;-69
2022/01/12 11:52:54;;;;;;;49.08;23.02;;;;;;;-146.48;100.00;46851.47;5278993;28;20055;-69
2022/01/12 11:55:32;;;;;;;55.53;24.05;;;;;;;-146.48;100.00;46787.59;5281389;28;20021;-69
2022/01/12 11:58:03;;;;;;;51.80;23.20;;;;;;;-146.48;100.00;46619.84;5280189;28;20089;-69
2022/01/12 12:00:36;;;;;;;54.33;23.15;;;;;;;-146.48;100.00;46288.38;5279786;28;20021;-69
2022/01/12 12:03:15;;;;;;;52.05;23.15;;;;;;;-146.48;100.00;46004.88;5279977;28;20099;-68
2022/01/12 12:05:53;;;;;;;55.58;24.08;;;;;;;-146.48;100.00;45887.06;5279716;28;20032;-68
2022/01/12 12:08:25;;;;;;;59.35;23.00;;;;;;;-146.48;100.00;45677.44;5279860;28;20081;-68
2022/01/12 12:10:56;;;;;;;53.35;23.45;;;;;;;-146.48;100.00;45713.38;5279826;28;20439;-69
2022/01/12 12:13:27;;;;;;;51.90;23.33;;;;;;;-146.48;100.00;45627.53;5280516;28;20020;-68
2022/01/12 12:15:59;;;;;;;56.90;23.83;;;;;;;-146.48;100.00;45647.50;5279239;28;20039;-68
2022/01/12 12:18:30;;;;;;;46.80;23.63;;;;;;;-146.48;100.00;45615.56;5280013;28;20097;-68
2022/01/12 12:21:02;;;;;;;57.85;25.88;;;;;;;-146.48;100.00;45637.50;5278941;28;20032;-68
2022/01/12 12:23:33;;;;;;;60.50;27.27;;;;;;;-146.48;100.00;45607.56;5280306;28;20467;-68
2022/01/12 12:26:10;;;;;;;49.63;23.45;;;;;;;-146.48;100.00;45563.66;5279464;28;20036;-70
2022/01/12 12:28:47;;;;;;;55.13;23.90;;;;;;;-146.48;100.00;45575.63;5279179;28;20039;-68
2022/01/12 12:31:25;;;;;;;55.70;24.42;;;;;;;-146.48;100.00;45603.56;5279958;28;20056;-68
2022/01/12 12:34:05;;;;;;;49.50;23.25;;;;;;;-146.48;100.00;45605.56;5279645;28;20032;-69
2022/01/12 12:36:36;;;;;;;50.42;24.52;;;;;;;-146.48;100.00;45260.22;5279166;28;20103;-69